createdAt,value
2023-03-29T00:01:00.286Z,96681.09
2023-03-29T00:03:47.556Z,96681.33
2023-03-29T00:06:35.081Z,96680.27
2023-03-29T00:09:21.995Z,96682.97
2023-03-29T00:12:09.012Z,96680.10
2023-03-29T00:14:56.762Z,96682.25
2023-03-29T00:17:43.669Z,96688.83
2023-03-29T00:20:30.789Z,96692.30
2023-03-29T00:23:18.616Z,96691.48
2023-03-29T00:26:07.911Z,96693.23
2023-03-29T00:28:55.059Z,96693.13
2023-03-29T00:31:42.158Z,96690.99
2023-03-29T00:34:32.208Z,96691.21
2023-03-29T00:37:19.430Z,96694.20
2023-03-29T00:40:11.132Z,96684.56
2023-03-29T00:42:58.384Z,96684.48
2023-03-29T00:45:45.082Z,96683.74
2023-03-29T00:48:33.026Z,96687.46
2023-03-29T00:51:23.549Z,96691.73
2023-03-29T00:54:15.219Z,96695.84
2023-03-29T00:57:04.153Z,96701.85
2023-03-29T00:59:52.997Z,96701.48
2023-03-29T01:02:42.698Z,96706.14
2023-03-29T01:05:34.574Z,96703.82
2023-03-29T01:08:27.768Z,96707.23
2023-03-29T01:11:22.580Z,96713.58
2023-03-29T01:14:46.832Z,96717.14
2023-03-29T01:17:33.386Z,96713.92
2023-03-29T01:20:57.001Z,96711.21
2023-03-29T01:24:07.328Z,96714.61
2023-03-29T01:27:01.142Z,96717.11
2023-03-29T01:30:00.460Z,96714.45
2023-03-29T01:32:57.224Z,96712.83
2023-03-29T01:35:49.452Z,96713.07
2023-03-29T01:38:49.728Z,96713.71
2023-03-29T01:41:50.762Z,96716.24
2023-03-29T01:44:54.092Z,96720.17
2023-03-29T01:47:52.839Z,96717.98
2023-03-29T01:50:48.936Z,96718.77
2023-03-29T01:53:53.847Z,96713.21
2023-03-29T01:56:44.287Z,96714.15
2023-03-29T01:59:34.424Z,96713.77
2023-03-29T02:02:24.448Z,96717.02
2023-03-29T02:05:15.321Z,96713.13
2023-03-29T02:08:05.414Z,96713.42
2023-03-29T02:10:53.260Z,96711.48
2023-03-29T02:13:41.185Z,96711.98
2023-03-29T02:16:28.318Z,96715.39
2023-03-29T02:19:17.344Z,96722.13
2023-03-29T02:22:13.190Z,96719.80
2023-03-29T02:25:03.155Z,96718.02
2023-03-29T02:27:51.872Z,96722.18
2023-03-29T02:30:46.744Z,96724.09
2023-03-29T02:33:45.628Z,96728.23
2023-03-29T02:36:42.175Z,96734.35
2023-03-29T02:39:32.253Z,96738.30
2023-03-29T02:42:20.593Z,96739.38
2023-03-29T02:45:09.634Z,96743.80
2023-03-29T02:48:01.641Z,96743.47
2023-03-29T02:50:53.740Z,96748.17
2023-03-29T02:53:47.559Z,96749.11
2023-03-29T02:56:56.170Z,96747.25
2023-03-29T02:59:44.778Z,96754.40
2023-03-29T03:02:31.662Z,96755.64
2023-03-29T03:05:19.587Z,96757.59
2023-03-29T03:08:07.674Z,96757.46
2023-03-29T03:10:55.353Z,96758.41
2023-03-29T03:13:42.226Z,96759.55
2023-03-29T03:16:29.416Z,96759.30
2023-03-29T03:19:18.004Z,96763.73
2023-03-29T03:22:06.171Z,96765.00
2023-03-29T03:24:53.571Z,96766.16
2023-03-29T03:27:40.383Z,96766.97
2023-03-29T03:30:28.972Z,96766.70
2023-03-29T03:33:21.791Z,96771.33
2023-03-29T03:36:36.149Z,96774.90
2023-03-29T03:39:23.047Z,96778.14
2023-03-29T03:42:10.470Z,96781.90
2023-03-29T03:45:02.095Z,96785.33
2023-03-29T03:48:15.636Z,96792.14
2023-03-29T03:51:10.302Z,96797.12
2023-03-29T03:53:57.244Z,96798.19
2023-03-29T03:57:16.842Z,96798.05
2023-03-29T04:00:19.465Z,96798.58
2023-03-29T04:03:09.224Z,96802.67
2023-03-29T04:05:56.312Z,96809.03
2023-03-29T04:08:44.343Z,96809.65
2023-03-29T04:11:44.563Z,96812.69
2023-03-29T04:14:32.399Z,96815.28
2023-03-29T04:17:28.462Z,96819.54
2023-03-29T04:20:18.950Z,96819.05
2023-03-29T04:23:06.153Z,96821.70
2023-03-29T04:25:56.993Z,96826.23
2023-03-29T04:29:07.314Z,96825.38
2023-03-29T04:32:00.096Z,96830.44
2023-03-29T04:35:05.620Z,96832.45
2023-03-29T04:37:54.795Z,96836.59
2023-03-29T04:40:44.180Z,96840.60
2023-03-29T04:43:46.830Z,96847.02
2023-03-29T04:46:52.245Z,96852.23
2023-03-29T04:50:06.754Z,96855.77
2023-03-29T04:53:03.830Z,96860.73
2023-03-29T04:55:50.610Z,96859.98
2023-03-29T04:58:45.938Z,96860.36
2023-03-29T05:01:33.080Z,96861.10
2023-03-29T05:04:21.228Z,96865.59
2023-03-29T05:07:22.130Z,96870.14
2023-03-29T05:10:10.048Z,96870.68
2023-03-29T05:12:57.192Z,96874.66
2023-03-29T05:15:44.516Z,96881.22
2023-03-29T05:18:32.039Z,96881.90
2023-03-29T05:21:19.123Z,96880.98
2023-03-29T05:24:06.583Z,96879.77
2023-03-29T05:27:21.123Z,96881.13
2023-03-29T05:30:18.084Z,96880.24
2023-03-29T05:33:25.664Z,96884.52
2023-03-29T05:36:16.227Z,96884.00
2023-03-29T05:39:06.540Z,96884.88
2023-03-29T05:41:55.052Z,96891.33
2023-03-29T05:44:48.597Z,96894.89
2023-03-29T05:47:38.443Z,96892.28
2023-03-29T05:50:25.202Z,96897.50
2023-03-29T05:53:12.589Z,96896.31
2023-03-29T05:55:59.776Z,96894.23
2023-03-29T05:58:49.505Z,96896.52
2023-03-29T06:01:36.918Z,96897.65
2023-03-29T06:04:27.030Z,96900.67
2023-03-29T06:07:40.353Z,96902.70
2023-03-29T06:10:45.898Z,96909.58
2023-03-29T06:13:46.063Z,96913.48
2023-03-29T06:16:32.843Z,96916.97
2023-03-29T06:19:19.740Z,96915.27
2023-03-29T06:22:06.583Z,96923.85
2023-03-29T06:24:54.480Z,96923.36
2023-03-29T06:27:47.827Z,96926.72
2023-03-29T06:30:36.020Z,96930.55
2023-03-29T06:33:23.283Z,96932.30
2023-03-29T06:36:16.449Z,96942.95
2023-03-29T06:39:04.306Z,96944.42
2023-03-29T06:42:29.722Z,96947.61
2023-03-29T06:45:38.803Z,96954.05
2023-03-29T06:48:30.959Z,96954.63
2023-03-29T06:51:17.679Z,96957.64
2023-03-29T06:54:05.614Z,96953.92
2023-03-29T06:56:53.378Z,96954.38
2023-03-29T06:59:43.113Z,96961.08
2023-03-29T07:02:37.082Z,96962.38
2023-03-29T07:05:30.265Z,96962.27
2023-03-29T07:08:18.835Z,96962.13
2023-03-29T07:11:29.181Z,96964.08
2023-03-29T07:14:18.305Z,96961.24
2023-03-29T07:17:06.234Z,96968.43
2023-03-29T07:19:55.525Z,96972.82
2023-03-29T07:23:01.746Z,96969.63
2023-03-29T07:25:49.087Z,96969.04
2023-03-29T07:28:40.105Z,96976.27
2023-03-29T07:31:29.580Z,96980.63
2023-03-29T07:34:25.209Z,96986.54
2023-03-29T07:37:12.340Z,96987.36
2023-03-29T07:40:03.616Z,96983.15
2023-03-29T07:43:00.490Z,96989.53
2023-03-29T07:45:52.729Z,96994.45
2023-03-29T07:48:40.335Z,96998.52
2023-03-29T07:51:29.886Z,96996.67
2023-03-29T07:54:24.308Z,96995.92
2023-03-29T07:57:16.053Z,96994.53
2023-03-29T08:00:16.957Z,97003.63
2023-03-29T08:03:07.581Z,97007.38
2023-03-29T08:05:54.702Z,97003.77
2023-03-29T08:08:41.940Z,97002.13
2023-03-29T08:11:32.732Z,97000.15
2023-03-29T08:14:23.943Z,97007.89
2023-03-29T08:17:25.018Z,97006.41
2023-03-29T08:20:15.662Z,97005.45
2023-03-29T08:23:04.274Z,97006.63
2023-03-29T08:25:53.685Z,97006.67
2023-03-29T08:28:41.044Z,97003.89
2023-03-29T08:31:28.333Z,97005.08
2023-03-29T08:34:16.415Z,97007.52
2023-03-29T08:37:24.713Z,97008.47
2023-03-29T08:40:31.178Z,97009.26
2023-03-29T08:43:49.226Z,97010.05
2023-03-29T08:47:09.013Z,97007.66
2023-03-29T08:50:02.518Z,97011.30
2023-03-29T08:53:02.714Z,97011.39
2023-03-29T08:56:34.101Z,97013.58
2023-03-29T08:59:34.684Z,97010.23
2023-03-29T09:02:27.436Z,97010.48
2023-03-29T09:05:28.079Z,97012.44
2023-03-29T09:08:27.924Z,97010.88
2023-03-29T09:11:24.643Z,97013.80
2023-03-29T09:14:36.542Z,97013.39
2023-03-29T09:17:33.610Z,97016.84
2023-03-29T09:20:40.070Z,97018.20
2023-03-29T09:23:55.323Z,97023.88
2023-03-29T09:27:39.384Z,97023.54
2023-03-29T09:30:42.883Z,97019.79
2023-03-29T09:33:42.938Z,97026.20
2023-03-29T09:37:00.137Z,97023.02
2023-03-29T09:39:47.674Z,97019.73
2023-03-29T09:42:38.166Z,97013.48
2023-03-29T09:45:25.197Z,97022.27
2023-03-29T09:48:18.441Z,97015.98
2023-03-29T09:51:12.999Z,97016.88
2023-03-29T09:54:01.210Z,97012.20
2023-03-29T09:57:13.789Z,97008.48
2023-03-29T10:00:05.912Z,97006.84
2023-03-29T10:03:00.923Z,97009.09
2023-03-29T10:06:05.245Z,97014.08
2023-03-29T10:08:59.146Z,97005.66
2023-03-29T10:12:02.494Z,97006.42
2023-03-29T10:14:53.583Z,97015.54
2023-03-29T10:17:41.640Z,97021.57
2023-03-29T10:20:28.498Z,97019.69
2023-03-29T10:23:18.769Z,97023.05
2023-03-29T10:26:17.886Z,97028.34
2023-03-29T10:29:07.236Z,97018.30
2023-03-29T10:31:55.184Z,97023.13
2023-03-29T10:34:42.664Z,97020.08
2023-03-29T10:37:29.652Z,97017.77
2023-03-29T10:40:42.248Z,97017.36
2023-03-29T10:43:37.328Z,97018.29
2023-03-29T10:46:41.800Z,97014.83
2023-03-29T10:49:29.412Z,97017.30
2023-03-29T10:52:20.221Z,97009.95
2023-03-29T10:55:13.133Z,97014.11
2023-03-29T10:58:15.526Z,97014.04
2023-03-29T11:01:03.885Z,97013.87
2023-03-29T11:04:01.379Z,97015.88
2023-03-29T11:07:01.578Z,97012.64
2023-03-29T11:10:06.930Z,97007.20
2023-03-29T11:13:30.520Z,96999.56
2023-03-29T11:16:47.046Z,96996.39
2023-03-29T11:19:40.275Z,97001.87
2023-03-29T11:22:49.715Z,96990.19
2023-03-29T11:25:49.192Z,96982.18
2023-03-29T11:28:45.154Z,96979.90
2023-03-29T11:31:54.101Z,96975.98
2023-03-29T11:35:02.490Z,96973.31
2023-03-29T11:38:05.702Z,96981.02
2023-03-29T11:40:58.722Z,96980.67
2023-03-29T11:44:09.829Z,96977.35
2023-03-29T11:47:07.319Z,96981.89
2023-03-29T11:50:03.532Z,96976.10
2023-03-29T11:52:57.698Z,96973.10
2023-03-29T11:55:46.073Z,96979.34
2023-03-29T11:58:40.117Z,96973.98
2023-03-29T12:01:55.948Z,96973.05
2023-03-29T12:04:49.616Z,96971.41
2023-03-29T12:07:42.650Z,96971.39
2023-03-29T12:10:39.495Z,96968.20
2023-03-29T12:13:33.874Z,96966.23
2023-03-29T12:16:20.817Z,96969.36
2023-03-29T12:19:42.695Z,96971.92
2023-03-29T12:22:31.621Z,96973.65
2023-03-29T12:25:30.906Z,96977.09
2023-03-29T12:28:38.998Z,96978.91
2023-03-29T12:31:29.226Z,96990.98
2023-03-29T12:34:38.459Z,96991.31
2023-03-29T12:38:08.340Z,96980.80
2023-03-29T12:41:19.887Z,96985.23
2023-03-29T12:44:26.137Z,96981.98
2023-03-29T12:47:24.730Z,96978.51
2023-03-29T12:50:28.473Z,96971.55
2023-03-29T12:53:51.158Z,96975.18
2023-03-29T12:56:51.938Z,96972.44
2023-03-29T12:59:44.452Z,96965.29
2023-03-29T13:02:37.245Z,96964.26
2023-03-29T13:05:31.361Z,96954.48
2023-03-29T13:08:53.727Z,96960.48
2023-03-29T13:11:41.566Z,96957.97
2023-03-29T13:14:32.388Z,96952.83
2023-03-29T13:17:43.793Z,96949.78
2023-03-29T13:20:40.873Z,96947.64
2023-03-29T13:23:54.338Z,96948.40
2023-03-29T13:26:47.461Z,96952.73
2023-03-29T13:29:56.842Z,96953.40
2023-03-29T13:33:06.640Z,96947.33
2023-03-29T13:36:03.317Z,96944.16
2023-03-29T13:38:53.935Z,96952.19
2023-03-29T13:41:41.353Z,96949.70
2023-03-29T13:44:41.261Z,96943.38
2023-03-29T13:47:40.244Z,96938.33
2023-03-29T13:50:40.662Z,96943.58
2023-03-29T13:53:33.437Z,96942.15
2023-03-29T13:56:27.238Z,96941.92
2023-03-29T13:59:24.487Z,96944.80
2023-03-29T14:02:22.159Z,96939.16
2023-03-29T14:05:13.894Z,96940.28
2023-03-29T14:08:19.519Z,96945.10
2023-03-29T14:11:12.912Z,96941.95
2023-03-29T14:14:02.988Z,96936.19
2023-03-29T14:16:51.135Z,96937.63
2023-03-29T14:19:38.439Z,96935.02
2023-03-29T14:22:31.297Z,96935.34
2023-03-29T14:25:22.723Z,96942.16
2023-03-29T14:28:28.088Z,96937.83
2023-03-29T14:31:23.814Z,96943.83
2023-03-29T14:34:16.031Z,96944.17
2023-03-29T14:37:03.207Z,96943.85
2023-03-29T14:39:51.273Z,96943.67
2023-03-29T14:42:38.707Z,96943.71
2023-03-29T14:45:25.822Z,96946.05
2023-03-29T14:48:14.628Z,96939.15
2023-03-29T14:51:01.995Z,96935.98
2023-03-29T14:53:49.517Z,96943.52
2023-03-29T14:56:36.743Z,96943.91
2023-03-29T14:59:27.260Z,96942.34
2023-03-29T15:02:27.675Z,96940.62
2023-03-29T15:05:32.530Z,96941.84
2023-03-29T15:08:42.707Z,96942.81
2023-03-29T15:11:34.881Z,96944.72
2023-03-29T15:14:24.412Z,96943.10
2023-03-29T15:17:33.511Z,96940.11
2023-03-29T15:20:36.673Z,96942.17
2023-03-29T15:23:25.790Z,96939.04
2023-03-29T15:26:31.366Z,96938.98
2023-03-29T15:29:23.711Z,96948.90
2023-03-29T15:32:21.445Z,96946.80
2023-03-29T15:35:24.721Z,96942.86
2023-03-29T15:38:13.301Z,96940.73
2023-03-29T15:41:01.712Z,96942.39
2023-03-29T15:43:48.748Z,96947.88
2023-03-29T15:46:35.624Z,96952.41
2023-03-29T15:49:23.703Z,96954.66
2023-03-29T15:52:11.225Z,96955.50
2023-03-29T15:54:57.938Z,96955.68
2023-03-29T15:57:48.442Z,96954.55
2023-03-29T16:00:36.196Z,96954.30
2023-03-29T16:03:24.781Z,96954.24
2023-03-29T16:06:12.556Z,96952.27
2023-03-29T16:09:00.575Z,96955.15
2023-03-29T16:11:48.987Z,96959.23
2023-03-29T16:14:36.025Z,96959.46
2023-03-29T16:17:22.998Z,96955.20
2023-03-29T16:20:10.604Z,96954.21
2023-03-29T16:22:57.439Z,96955.17
2023-03-29T16:25:44.532Z,96957.16
2023-03-29T16:28:31.969Z,96957.26
2023-03-29T16:31:18.755Z,96955.98
2023-03-29T16:34:06.216Z,96958.92
2023-03-29T16:36:53.253Z,96960.79
2023-03-29T16:39:40.855Z,96964.95
2023-03-29T16:42:27.444Z,96968.29
2023-03-29T16:45:14.986Z,96969.80
2023-03-29T16:48:01.755Z,96975.35
2023-03-29T16:50:49.694Z,96977.41
2023-03-29T16:53:37.261Z,96976.52
2023-03-29T16:56:24.482Z,96978.75
2023-03-29T16:59:12.176Z,96980.41
2023-03-29T17:01:59.138Z,96985.36
2023-03-29T17:04:46.868Z,96985.58
2023-03-29T17:07:33.956Z,96990.71
2023-03-29T17:10:22.150Z,96992.73
2023-03-29T17:13:09.850Z,96996.00
2023-03-29T17:15:57.505Z,96997.88
2023-03-29T17:18:44.911Z,97001.65
2023-03-29T17:21:31.760Z,97003.75
2023-03-29T17:24:18.519Z,97009.82
2023-03-29T17:27:05.547Z,97010.27
2023-03-29T17:29:52.764Z,97012.30
2023-03-29T17:32:41.676Z,97014.10
2023-03-29T17:35:29.085Z,97015.83
2023-03-29T17:38:15.892Z,97017.45
2023-03-29T17:41:04.621Z,97018.73
2023-03-29T17:43:52.164Z,97018.81
2023-03-29T17:46:41.436Z,97017.98
2023-03-29T17:49:28.842Z,97024.66
2023-03-29T17:52:15.754Z,97025.74
2023-03-29T17:55:03.307Z,97024.50
2023-03-29T17:57:50.597Z,97027.95
2023-03-29T18:00:38.084Z,97033.72
2023-03-29T18:03:25.686Z,97034.80
2023-03-29T18:06:13.896Z,97037.10
2023-03-29T18:09:01.669Z,97043.08
2023-03-29T18:11:49.059Z,97048.69
2023-03-29T18:14:36.288Z,97047.73
2023-03-29T18:17:24.754Z,97049.86
2023-03-29T18:20:16.553Z,97052.83
2023-03-29T18:23:03.792Z,97056.65
2023-03-29T18:25:51.918Z,97056.69
2023-03-29T18:28:39.560Z,97057.92
2023-03-29T18:31:28.176Z,97057.27
2023-03-29T18:34:15.767Z,97061.09
2023-03-29T18:37:03.278Z,97061.44
2023-03-29T18:39:50.892Z,97065.39
2023-03-29T18:42:38.061Z,97063.64
2023-03-29T18:45:24.938Z,97058.08
2023-03-29T18:48:16.121Z,97060.55
2023-03-29T18:51:05.620Z,97064.68
2023-03-29T18:53:55.643Z,97067.10
2023-03-29T18:56:42.629Z,97062.89
2023-03-29T18:59:30.454Z,97064.95
2023-03-29T19:02:17.436Z,97067.73
2023-03-29T19:05:05.109Z,97067.85
2023-03-29T19:07:52.334Z,97071.67
2023-03-29T19:10:40.033Z,97070.94
2023-03-29T19:13:27.478Z,97069.35
2023-03-29T19:16:14.273Z,97074.02
2023-03-29T19:19:01.832Z,97072.78
2023-03-29T19:21:49.682Z,97074.34
2023-03-29T19:24:36.564Z,97071.35
2023-03-29T19:27:24.196Z,97068.02
2023-03-29T19:30:11.657Z,97071.97
2023-03-29T19:32:58.274Z,97075.77
2023-03-29T19:35:45.593Z,97083.17
2023-03-29T19:38:32.676Z,97081.05
2023-03-29T19:41:20.090Z,97082.20
2023-03-29T19:44:07.113Z,97078.20
2023-03-29T19:46:54.350Z,97076.76
2023-03-29T19:49:41.347Z,97078.78
2023-03-29T19:52:28.911Z,97073.38
2023-03-29T19:55:16.623Z,97074.17
2023-03-29T19:58:04.956Z,97070.67
2023-03-29T20:00:53.317Z,97071.66
2023-03-29T20:03:42.235Z,97067.60
2023-03-29T20:06:30.821Z,97068.25
2023-03-29T20:09:17.425Z,97067.88
2023-03-29T20:12:04.998Z,97067.28
2023-03-29T20:14:52.384Z,97067.78
2023-03-29T20:17:41.439Z,97067.88
2023-03-29T20:20:28.650Z,97066.61
2023-03-29T20:23:15.677Z,97061.85
2023-03-29T20:26:02.484Z,97060.23
2023-03-29T20:28:49.889Z,97057.41
2023-03-29T20:31:36.881Z,97053.05
2023-03-29T20:34:23.766Z,97053.48
2023-03-29T20:37:10.924Z,97047.90
2023-03-29T20:39:59.474Z,97048.52
2023-03-29T20:42:46.469Z,97049.85
2023-03-29T20:45:46.118Z,97049.60
2023-03-29T20:48:45.941Z,97048.70
2023-03-29T20:51:33.805Z,97044.62
2023-03-29T20:54:20.810Z,97042.98
2023-03-29T20:57:08.125Z,97043.59
2023-03-29T20:59:55.155Z,97040.58
2023-03-29T21:02:42.097Z,97041.17
2023-03-29T21:05:33.899Z,97040.39
2023-03-29T21:08:20.913Z,97038.97
2023-03-29T21:11:08.335Z,97046.67
2023-03-29T21:13:55.224Z,97045.22
2023-03-29T21:16:42.775Z,97049.46
2023-03-29T21:19:29.962Z,97047.98
2023-03-29T21:22:17.924Z,97051.94
2023-03-29T21:25:10.149Z,97054.49
2023-03-29T21:27:57.288Z,97054.23
2023-03-29T21:30:44.405Z,97056.77
2023-03-29T21:33:30.903Z,97060.99
2023-03-29T21:36:17.526Z,97063.87
2023-03-29T21:39:04.956Z,97065.53
2023-03-29T21:41:52.062Z,97065.45
2023-03-29T21:44:38.990Z,97062.60
2023-03-29T21:47:26.137Z,97061.96
2023-03-29T21:50:13.406Z,97060.14
2023-03-29T21:53:04.224Z,97058.27
2023-03-29T21:55:51.857Z,97056.52
2023-03-29T21:58:39.177Z,97055.23
2023-03-29T22:01:26.035Z,97057.88
2023-03-29T22:04:17.679Z,97057.98
2023-03-29T22:07:12.605Z,97058.77
2023-03-29T22:10:04.238Z,97062.66
2023-03-29T22:12:52.798Z,97065.04
2023-03-29T22:15:39.706Z,97063.04
2023-03-29T22:18:42.708Z,97061.91
2023-03-29T22:21:33.857Z,97063.03
2023-03-29T22:24:20.982Z,97061.89
2023-03-29T22:27:08.669Z,97061.80
2023-03-29T22:29:55.766Z,97059.27
2023-03-29T22:32:42.605Z,97055.02
2023-03-29T22:35:29.501Z,97055.08
2023-03-29T22:38:16.096Z,97059.13
2023-03-29T22:41:03.539Z,97061.66
2023-03-29T22:43:52.740Z,97059.15
2023-03-29T22:46:39.497Z,97057.67
2023-03-29T22:49:26.397Z,97061.20
2023-03-29T22:52:13.235Z,97062.14
2023-03-29T22:55:00.349Z,97062.56
2023-03-29T22:57:47.152Z,97059.45
2023-03-29T23:00:34.600Z,97056.39
2023-03-29T23:03:23.326Z,97055.08
2023-03-29T23:06:10.054Z,97059.32
2023-03-29T23:08:56.763Z,97063.21
2023-03-29T23:11:44.077Z,97070.41
2023-03-29T23:14:31.105Z,97072.38
2023-03-29T23:17:19.381Z,97073.86
2023-03-29T23:20:07.188Z,97075.63
2023-03-29T23:22:54.404Z,97073.64
2023-03-29T23:25:45.733Z,97070.04
2023-03-29T23:28:34.328Z,97070.64
2023-03-29T23:31:23.931Z,97070.00
2023-03-29T23:34:11.029Z,97065.41
2023-03-29T23:36:58.089Z,97066.33
2023-03-29T23:39:45.197Z,97067.61
2023-03-29T23:42:32.095Z,97072.52
2023-03-29T23:45:19.437Z,97071.91
2023-03-29T23:48:07.680Z,97072.66
2023-03-29T23:50:57.475Z,97070.80
2023-03-29T23:53:44.900Z,97067.60
2023-03-29T23:56:32.932Z,97064.88
2023-03-29T23:59:19.714Z,97064.44
